sensor_id;sensor_type;location;lat;lon;timestamp;P1;durP1;ratioP1;P2;durP2;ratioP2
15331;SDS011;7766;51.534;6.722;2024-03-06T00:02:00;19.17;;;13.50;;
15331;SDS011;7766;51.534;6.722;2024-03-06T00:04:27;21.53;;;14.10;;
15331;SDS011;7766;51.534;6.722;2024-03-06T00:06:52;19.97;;;12.63;;
15331;SDS011;7766;51.534;6.722;2024-03-06T00:09:20;19.40;;;13.90;;
15331;SDS011;7766;51.534;6.722;2024-03-06T00:11:46;21.27;;;13.33;;
15331;SDS011;7766;51.534;6.722;2024-03-06T00:14:11;23.00;;;13.77;;
15331;SDS011;7766;51.534;6.722;2024-03-06T00:16:37;20.90;;;13.43;;
15331;SDS011;7766;51.534;6.722;2024-03-06T00:19:03;22.63;;;15.63;;
15331;SDS011;7766;51.534;6.722;2024-03-06T00:21:29;22.57;;;15.17;;
15331;SDS011;7766;51.534;6.722;2024-03-06T00:23:55;18.57;;;12.97;;
15331;SDS011;7766;51.534;6.722;2024-03-06T00:26:21;17.53;;;12.60;;
15331;SDS011;7766;51.534;6.722;2024-03-06T00:28:47;19.33;;;13.13;;
15331;SDS011;7766;51.534;6.722;2024-03-06T00:31:12;15.53;;;11.43;;
15331;SDS011;7766;51.534;6.722;2024-03-06T00:33:39;16.77;;;12.43;;
15331;SDS011;7766;51.534;6.722;2024-03-06T00:36:05;19.50;;;11.43;;
15331;SDS011;7766;51.534;6.722;2024-03-06T00:38:31;18.83;;;11.33;;
15331;SDS011;7766;51.534;6.722;2024-03-06T00:40:57;15.07;;;11.20;;
15331;SDS011;7766;51.534;6.722;2024-03-06T00:43:23;13.53;;;10.47;;
15331;SDS011;7766;51.534;6.722;2024-03-06T00:45:49;13.70;;;9.83;;
15331;SDS011;7766;51.534;6.722;2024-03-06T00:48:15;16.67;;;10.83;;
15331;SDS011;7766;51.534;6.722;2024-03-06T00:50:41;13.47;;;10.73;;
15331;SDS011;7766;51.534;6.722;2024-03-06T00:53:07;14.43;;;9.77;;
15331;SDS011;7766;51.534;6.722;2024-03-06T00:55:33;17.23;;;12.90;;
15331;SDS011;7766;51.534;6.722;2024-03-06T00:57:58;14.70;;;11.17;;
15331;SDS011;7766;51.534;6.722;2024-03-06T01:00:24;11.93;;;9.67;;
15331;SDS011;7766;51.534;6.722;2024-03-06T01:02:50;13.67;;;10.30;;
15331;SDS011;7766;51.534;6.722;2024-03-06T01:05:15;11.00;;;9.13;;
15331;SDS011;7766;51.534;6.722;2024-03-06T01:07:42;10.70;;;8.40;;
15331;SDS011;7766;51.534;6.722;2024-03-06T01:10:08;10.20;;;8.33;;
15331;SDS011;7766;51.534;6.722;2024-03-06T01:12:34;12.90;;;9.33;;
15331;SDS011;7766;51.534;6.722;2024-03-06T01:15:00;14.20;;;9.37;;
15331;SDS011;7766;51.534;6.722;2024-03-06T01:17:26;10.30;;;8.87;;
15331;SDS011;7766;51.534;6.722;2024-03-06T01:19:51;10.67;;;8.73;;
15331;SDS011;7766;51.534;6.722;2024-03-06T01:22:17;11.40;;;8.90;;
15331;SDS011;7766;51.534;6.722;2024-03-06T01:24:43;12.07;;;9.50;;
15331;SDS011;7766;51.534;6.722;2024-03-06T01:27:09;12.37;;;9.90;;
15331;SDS011;7766;51.534;6.722;2024-03-06T01:29:35;12.07;;;9.17;;
15331;SDS011;7766;51.534;6.722;2024-03-06T01:32:01;11.73;;;8.83;;
15331;SDS011;7766;51.534;6.722;2024-03-06T01:34:27;12.00;;;9.13;;
15331;SDS011;7766;51.534;6.722;2024-03-06T01:36:53;13.07;;;9.40;;
15331;SDS011;7766;51.534;6.722;2024-03-06T01:39:19;9.57;;;8.57;;
15331;SDS011;7766;51.534;6.722;2024-03-06T01:41:45;11.27;;;8.93;;
15331;SDS011;7766;51.534;6.722;2024-03-06T01:44:11;13.17;;;9.70;;
15331;SDS011;7766;51.534;6.722;2024-03-06T01:46:37;13.13;;;9.10;;
15331;SDS011;7766;51.534;6.722;2024-03-06T01:49:03;10.93;;;8.87;;
15331;SDS011;7766;51.534;6.722;2024-03-06T01:51:29;23.40;;;14.73;;
15331;SDS011;7766;51.534;6.722;2024-03-06T01:53:55;12.53;;;9.80;;
15331;SDS011;7766;51.534;6.722;2024-03-06T01:56:22;23.47;;;14.60;;
15331;SDS011;7766;51.534;6.722;2024-03-06T01:58:48;13.40;;;10.53;;
15331;SDS011;7766;51.534;6.722;2024-03-06T02:01:14;11.63;;;10.13;;
15331;SDS011;7766;51.534;6.722;2024-03-06T02:03:41;12.07;;;10.03;;
15331;SDS011;7766;51.534;6.722;2024-03-06T02:06:07;12.60;;;9.63;;
15331;SDS011;7766;51.534;6.722;2024-03-06T02:08:36;13.10;;;10.70;;
15331;SDS011;7766;51.534;6.722;2024-03-06T02:11:02;12.63;;;9.93;;
15331;SDS011;7766;51.534;6.722;2024-03-06T02:13:27;15.37;;;10.60;;
15331;SDS011;7766;51.534;6.722;2024-03-06T02:15:53;14.20;;;10.30;;
15331;SDS011;7766;51.534;6.722;2024-03-06T02:18:20;13.40;;;10.83;;
15331;SDS011;7766;51.534;6.722;2024-03-06T02:20:46;14.67;;;10.93;;
15331;SDS011;7766;51.534;6.722;2024-03-06T02:23:12;13.17;;;10.87;;
15331;SDS011;7766;51.534;6.722;2024-03-06T02:25:39;15.47;;;11.10;;
15331;SDS011;7766;51.534;6.722;2024-03-06T02:28:06;14.47;;;11.17;;
15331;SDS011;7766;51.534;6.722;2024-03-06T02:30:31;18.60;;;12.10;;
15331;SDS011;7766;51.534;6.722;2024-03-06T02:33:01;16.87;;;12.63;;
15331;SDS011;7766;51.534;6.722;2024-03-06T02:35:28;19.77;;;12.93;;
15331;SDS011;7766;51.534;6.722;2024-03-06T02:37:54;22.07;;;14.17;;
15331;SDS011;7766;51.534;6.722;2024-03-06T02:40:21;19.87;;;13.47;;
15331;SDS011;7766;51.534;6.722;2024-03-06T02:42:47;23.43;;;13.63;;
15331;SDS011;7766;51.534;6.722;2024-03-06T02:45:13;23.60;;;12.83;;
15331;SDS011;7766;51.534;6.722;2024-03-06T02:47:39;19.40;;;13.27;;
15331;SDS011;7766;51.534;6.722;2024-03-06T02:50:05;16.63;;;11.77;;
15331;SDS011;7766;51.534;6.722;2024-03-06T02:52:32;18.67;;;12.60;;
15331;SDS011;7766;51.534;6.722;2024-03-06T02:54:58;20.30;;;13.80;;
15331;SDS011;7766;51.534;6.722;2024-03-06T02:57:27;18.27;;;12.60;;
15331;SDS011;7766;51.534;6.722;2024-03-06T02:59:53;20.97;;;13.23;;
15331;SDS011;7766;51.534;6.722;2024-03-06T03:02:19;20.47;;;13.43;;
15331;SDS011;7766;51.534;6.722;2024-03-06T03:04:45;20.63;;;14.00;;
15331;SDS011;7766;51.534;6.722;2024-03-06T03:07:11;19.30;;;13.70;;
15331;SDS011;7766;51.534;6.722;2024-03-06T03:09:37;19.87;;;13.53;;
15331;SDS011;7766;51.534;6.722;2024-03-06T03:12:03;19.03;;;13.00;;
15331;SDS011;7766;51.534;6.722;2024-03-06T03:14:29;22.47;;;14.97;;
15331;SDS011;7766;51.534;6.722;2024-03-06T03:16:55;19.87;;;13.63;;
15331;SDS011;7766;51.534;6.722;2024-03-06T03:19:20;19.40;;;13.93;;
15331;SDS011;7766;51.534;6.722;2024-03-06T03:21:46;23.40;;;14.90;;
15331;SDS011;7766;51.534;6.722;2024-03-06T03:24:12;21.03;;;14.20;;
15331;SDS011;7766;51.534;6.722;2024-03-06T03:26:38;20.17;;;14.20;;
15331;SDS011;7766;51.534;6.722;2024-03-06T03:29:06;22.87;;;14.80;;
15331;SDS011;7766;51.534;6.722;2024-03-06T03:31:32;21.87;;;15.47;;
15331;SDS011;7766;51.534;6.722;2024-03-06T03:33:58;20.40;;;14.33;;
15331;SDS011;7766;51.534;6.722;2024-03-06T03:36:24;18.80;;;13.37;;
15331;SDS011;7766;51.534;6.722;2024-03-06T03:38:50;20.30;;;14.27;;
15331;SDS011;7766;51.534;6.722;2024-03-06T03:41:15;21.63;;;13.50;;
15331;SDS011;7766;51.534;6.722;2024-03-06T03:43:41;18.70;;;13.27;;
15331;SDS011;7766;51.534;6.722;2024-03-06T03:46:07;19.80;;;13.40;;
15331;SDS011;7766;51.534;6.722;2024-03-06T03:48:34;17.23;;;12.67;;
15331;SDS011;7766;51.534;6.722;2024-03-06T03:51:04;18.53;;;12.80;;
15331;SDS011;7766;51.534;6.722;2024-03-06T03:53:31;18.97;;;13.30;;
15331;SDS011;7766;51.534;6.722;2024-03-06T03:56:01;21.47;;;14.20;;
15331;SDS011;7766;51.534;6.722;2024-03-06T03:58:28;18.73;;;12.93;;
15331;SDS011;7766;51.534;6.722;2024-03-06T04:00:54;17.43;;;12.90;;
15331;SDS011;7766;51.534;6.722;2024-03-06T04:03:20;18.07;;;13.13;;
15331;SDS011;7766;51.534;6.722;2024-03-06T04:05:47;18.37;;;13.20;;
15331;SDS011;7766;51.534;6.722;2024-03-06T04:08:13;19.40;;;12.67;;
15331;SDS011;7766;51.534;6.722;2024-03-06T04:10:39;18.50;;;12.13;;
15331;SDS011;7766;51.534;6.722;2024-03-06T04:13:05;20.93;;;14.13;;
15331;SDS011;7766;51.534;6.722;2024-03-06T04:15:31;20.23;;;14.40;;
15331;SDS011;7766;51.534;6.722;2024-03-06T04:17:57;18.10;;;13.17;;
15331;SDS011;7766;51.534;6.722;2024-03-06T04:20:23;15.13;;;12.27;;
15331;SDS011;7766;51.534;6.722;2024-03-06T04:22:48;16.03;;;12.37;;
15331;SDS011;7766;51.534;6.722;2024-03-06T04:25:17;15.83;;;11.63;;
15331;SDS011;7766;51.534;6.722;2024-03-06T04:27:43;14.63;;;12.10;;
15331;SDS011;7766;51.534;6.722;2024-03-06T04:30:09;17.47;;;12.13;;
15331;SDS011;7766;51.534;6.722;2024-03-06T04:32:35;18.83;;;13.27;;
15331;SDS011;7766;51.534;6.722;2024-03-06T04:35:01;17.37;;;12.00;;
15331;SDS011;7766;51.534;6.722;2024-03-06T04:37:26;20.20;;;14.10;;
15331;SDS011;7766;51.534;6.722;2024-03-06T04:39:54;22.73;;;12.53;;
15331;SDS011;7766;51.534;6.722;2024-03-06T04:42:20;17.37;;;13.50;;
15331;SDS011;7766;51.534;6.722;2024-03-06T04:44:45;18.03;;;14.13;;
15331;SDS011;7766;51.534;6.722;2024-03-06T04:47:11;23.80;;;15.57;;
15331;SDS011;7766;51.534;6.722;2024-03-06T04:49:37;21.13;;;14.30;;
15331;SDS011;7766;51.534;6.722;2024-03-06T04:52:03;20.37;;;13.53;;
15331;SDS011;7766;51.534;6.722;2024-03-06T04:54:29;23.30;;;14.77;;
15331;SDS011;7766;51.534;6.722;2024-03-06T04:56:54;23.00;;;15.67;;
15331;SDS011;7766;51.534;6.722;2024-03-06T04:59:20;21.60;;;14.73;;
15331;SDS011;7766;51.534;6.722;2024-03-06T05:01:46;27.33;;;16.43;;
15331;SDS011;7766;51.534;6.722;2024-03-06T05:04:12;24.97;;;16.07;;
15331;SDS011;7766;51.534;6.722;2024-03-06T05:06:38;26.10;;;16.73;;
15331;SDS011;7766;51.534;6.722;2024-03-06T05:09:04;28.23;;;16.33;;
15331;SDS011;7766;51.534;6.722;2024-03-06T05:11:30;28.97;;;16.97;;
15331;SDS011;7766;51.534;6.722;2024-03-06T05:13:59;27.57;;;17.07;;
15331;SDS011;7766;51.534;6.722;2024-03-06T05:16:25;30.90;;;17.90;;
15331;SDS011;7766;51.534;6.722;2024-03-06T05:18:51;27.90;;;17.57;;
15331;SDS011;7766;51.534;6.722;2024-03-06T05:21:18;27.17;;;18.13;;
15331;SDS011;7766;51.534;6.722;2024-03-06T05:23:43;30.73;;;17.27;;
15331;SDS011;7766;51.534;6.722;2024-03-06T05:26:09;33.47;;;20.07;;
15331;SDS011;7766;51.534;6.722;2024-03-06T05:28:35;30.37;;;17.63;;
15331;SDS011;7766;51.534;6.722;2024-03-06T05:31:13;30.80;;;19.00;;
15331;SDS011;7766;51.534;6.722;2024-03-06T05:33:44;28.23;;;16.63;;
15331;SDS011;7766;51.534;6.722;2024-03-06T05:36:10;31.13;;;18.87;;
15331;SDS011;7766;51.534;6.722;2024-03-06T05:38:38;27.23;;;17.50;;
15331;SDS011;7766;51.534;6.722;2024-03-06T05:41:04;26.27;;;16.40;;
15331;SDS011;7766;51.534;6.722;2024-03-06T05:43:29;27.47;;;16.40;;
15331;SDS011;7766;51.534;6.722;2024-03-06T05:45:55;25.83;;;16.70;;
15331;SDS011;7766;51.534;6.722;2024-03-06T05:48:21;30.80;;;18.87;;
15331;SDS011;7766;51.534;6.722;2024-03-06T05:50:49;35.33;;;19.87;;
15331;SDS011;7766;51.534;6.722;2024-03-06T05:53:14;34.03;;;19.67;;
15331;SDS011;7766;51.534;6.722;2024-03-06T05:55:40;31.90;;;18.53;;
15331;SDS011;7766;51.534;6.722;2024-03-06T05:58:06;29.80;;;18.63;;
15331;SDS011;7766;51.534;6.722;2024-03-06T06:00:32;30.40;;;18.10;;
15331;SDS011;7766;51.534;6.722;2024-03-06T06:02:58;31.30;;;18.50;;
15331;SDS011;7766;51.534;6.722;2024-03-06T06:05:23;28.23;;;18.73;;
15331;SDS011;7766;51.534;6.722;2024-03-06T06:07:50;29.67;;;17.27;;
15331;SDS011;7766;51.534;6.722;2024-03-06T06:10:16;31.03;;;18.10;;
15331;SDS011;7766;51.534;6.722;2024-03-06T06:12:41;31.20;;;16.93;;
15331;SDS011;7766;51.534;6.722;2024-03-06T06:15:07;28.97;;;15.80;;
15331;SDS011;7766;51.534;6.722;2024-03-06T06:17:33;26.20;;;16.97;;
15331;SDS011;7766;51.534;6.722;2024-03-06T06:20:00;29.57;;;17.50;;
15331;SDS011;7766;51.534;6.722;2024-03-06T06:22:28;26.77;;;16.63;;
15331;SDS011;7766;51.534;6.722;2024-03-06T06:24:54;26.43;;;16.13;;
15331;SDS011;7766;51.534;6.722;2024-03-06T06:27:20;25.67;;;15.73;;
15331;SDS011;7766;51.534;6.722;2024-03-06T06:29:46;25.80;;;17.63;;
15331;SDS011;7766;51.534;6.722;2024-03-06T06:32:12;32.07;;;17.30;;
15331;SDS011;7766;51.534;6.722;2024-03-06T06:34:38;28.17;;;18.43;;
15331;SDS011;7766;51.534;6.722;2024-03-06T06:37:03;30.60;;;17.50;;
15331;SDS011;7766;51.534;6.722;2024-03-06T06:39:29;34.57;;;20.27;;
15331;SDS011;7766;51.534;6.722;2024-03-06T06:41:55;27.83;;;17.03;;
15331;SDS011;7766;51.534;6.722;2024-03-06T06:44:21;28.37;;;17.23;;
15331;SDS011;7766;51.534;6.722;2024-03-06T06:46:47;26.40;;;17.87;;
15331;SDS011;7766;51.534;6.722;2024-03-06T06:49:12;27.93;;;18.30;;
15331;SDS011;7766;51.534;6.722;2024-03-06T06:51:38;28.33;;;18.43;;
15331;SDS011;7766;51.534;6.722;2024-03-06T06:54:04;31.60;;;17.80;;
15331;SDS011;7766;51.534;6.722;2024-03-06T06:56:29;26.80;;;16.90;;
15331;SDS011;7766;51.534;6.722;2024-03-06T06:58:55;28.40;;;16.67;;
15331;SDS011;7766;51.534;6.722;2024-03-06T07:01:21;27.60;;;16.80;;
15331;SDS011;7766;51.534;6.722;2024-03-06T07:03:48;26.23;;;15.67;;
15331;SDS011;7766;51.534;6.722;2024-03-06T07:06:13;25.97;;;16.33;;
15331;SDS011;7766;51.534;6.722;2024-03-06T07:08:39;23.77;;;15.67;;
15331;SDS011;7766;51.534;6.722;2024-03-06T07:11:05;28.90;;;16.80;;
15331;SDS011;7766;51.534;6.722;2024-03-06T07:13:31;27.57;;;16.30;;
15331;SDS011;7766;51.534;6.722;2024-03-06T07:15:57;30.30;;;17.70;;
15331;SDS011;7766;51.534;6.722;2024-03-06T07:18:22;27.60;;;16.57;;
15331;SDS011;7766;51.534;6.722;2024-03-06T07:20:48;25.67;;;15.83;;
15331;SDS011;7766;51.534;6.722;2024-03-06T07:23:14;28.00;;;16.63;;
15331;SDS011;7766;51.534;6.722;2024-03-06T07:25:40;27.50;;;16.93;;
15331;SDS011;7766;51.534;6.722;2024-03-06T07:28:05;26.30;;;17.40;;
15331;SDS011;7766;51.534;6.722;2024-03-06T07:30:31;26.97;;;17.23;;
15331;SDS011;7766;51.534;6.722;2024-03-06T07:32:57;32.90;;;18.60;;
15331;SDS011;7766;51.534;6.722;2024-03-06T07:35:23;31.03;;;19.23;;
15331;SDS011;7766;51.534;6.722;2024-03-06T07:37:49;29.17;;;18.13;;
15331;SDS011;7766;51.534;6.722;2024-03-06T07:40:14;31.73;;;18.87;;
15331;SDS011;7766;51.534;6.722;2024-03-06T07:42:40;27.27;;;18.10;;
15331;SDS011;7766;51.534;6.722;2024-03-06T07:45:06;31.63;;;18.93;;
15331;SDS011;7766;51.534;6.722;2024-03-06T07:47:34;29.63;;;18.90;;
15331;SDS011;7766;51.534;6.722;2024-03-06T07:50:02;30.40;;;18.07;;
15331;SDS011;7766;51.534;6.722;2024-03-06T07:52:29;31.40;;;17.67;;
15331;SDS011;7766;51.534;6.722;2024-03-06T07:54:54;28.37;;;17.10;;
15331;SDS011;7766;51.534;6.722;2024-03-06T07:57:20;32.73;;;18.83;;
15331;SDS011;7766;51.534;6.722;2024-03-06T07:59:46;29.87;;;18.27;;
15331;SDS011;7766;51.534;6.722;2024-03-06T08:02:11;33.33;;;21.00;;
15331;SDS011;7766;51.534;6.722;2024-03-06T08:04:37;37.77;;;20.30;;
15331;SDS011;7766;51.534;6.722;2024-03-06T08:07:03;35.97;;;23.17;;
15331;SDS011;7766;51.534;6.722;2024-03-06T08:09:29;38.33;;;22.00;;
15331;SDS011;7766;51.534;6.722;2024-03-06T08:11:55;36.27;;;22.80;;
15331;SDS011;7766;51.534;6.722;2024-03-06T08:14:21;35.70;;;21.37;;
15331;SDS011;7766;51.534;6.722;2024-03-06T08:16:47;39.03;;;22.00;;
15331;SDS011;7766;51.534;6.722;2024-03-06T08:19:12;39.17;;;22.30;;
15331;SDS011;7766;51.534;6.722;2024-03-06T08:21:38;36.60;;;22.00;;
15331;SDS011;7766;51.534;6.722;2024-03-06T08:24:04;39.10;;;22.77;;
15331;SDS011;7766;51.534;6.722;2024-03-06T08:26:30;34.33;;;21.43;;
15331;SDS011;7766;51.534;6.722;2024-03-06T08:28:56;38.07;;;23.30;;
15331;SDS011;7766;51.534;6.722;2024-03-06T08:31:22;34.03;;;21.67;;
15331;SDS011;7766;51.534;6.722;2024-03-06T08:33:48;31.73;;;20.87;;
15331;SDS011;7766;51.534;6.722;2024-03-06T08:36:14;33.60;;;20.50;;
15331;SDS011;7766;51.534;6.722;2024-03-06T08:38:39;33.80;;;20.97;;
15331;SDS011;7766;51.534;6.722;2024-03-06T08:41:08;30.83;;;20.33;;
15331;SDS011;7766;51.534;6.722;2024-03-06T08:43:34;35.47;;;19.67;;
15331;SDS011;7766;51.534;6.722;2024-03-06T08:45:59;29.27;;;18.23;;
15331;SDS011;7766;51.534;6.722;2024-03-06T08:48:25;26.73;;;17.63;;
15331;SDS011;7766;51.534;6.722;2024-03-06T08:50:51;25.17;;;16.07;;
15331;SDS011;7766;51.534;6.722;2024-03-06T08:53:17;29.60;;;18.63;;
15331;SDS011;7766;51.534;6.722;2024-03-06T08:55:43;26.13;;;16.43;;
15331;SDS011;7766;51.534;6.722;2024-03-06T08:58:09;24.37;;;16.27;;
15331;SDS011;7766;51.534;6.722;2024-03-06T09:00:34;27.13;;;16.43;;
15331;SDS011;7766;51.534;6.722;2024-03-06T09:03:00;25.47;;;16.47;;
15331;SDS011;7766;51.534;6.722;2024-03-06T09:05:26;27.70;;;16.40;;
15331;SDS011;7766;51.534;6.722;2024-03-06T09:07:52;27.13;;;16.73;;
15331;SDS011;7766;51.534;6.722;2024-03-06T09:10:17;26.37;;;17.10;;
15331;SDS011;7766;51.534;6.722;2024-03-06T09:12:44;24.90;;;15.80;;
15331;SDS011;7766;51.534;6.722;2024-03-06T09:15:10;28.80;;;17.60;;
15331;SDS011;7766;51.534;6.722;2024-03-06T09:17:36;25.23;;;17.07;;
15331;SDS011;7766;51.534;6.722;2024-03-06T09:20:02;26.93;;;18.57;;
15331;SDS011;7766;51.534;6.722;2024-03-06T09:22:38;21.90;;;16.77;;
15331;SDS011;7766;51.534;6.722;2024-03-06T09:25:04;26.80;;;17.10;;
15331;SDS011;7766;51.534;6.722;2024-03-06T09:27:31;29.03;;;18.10;;
15331;SDS011;7766;51.534;6.722;2024-03-06T09:29:57;30.17;;;19.00;;
15331;SDS011;7766;51.534;6.722;2024-03-06T09:32:22;29.37;;;19.13;;
15331;SDS011;7766;51.534;6.722;2024-03-06T09:34:50;25.23;;;18.27;;
15331;SDS011;7766;51.534;6.722;2024-03-06T09:37:15;28.03;;;17.93;;
15331;SDS011;7766;51.534;6.722;2024-03-06T09:39:41;23.87;;;15.93;;
15331;SDS011;7766;51.534;6.722;2024-03-06T09:42:07;26.37;;;16.83;;
15331;SDS011;7766;51.534;6.722;2024-03-06T09:44:33;24.47;;;15.80;;
15331;SDS011;7766;51.534;6.722;2024-03-06T09:47:01;22.57;;;15.93;;
15331;SDS011;7766;51.534;6.722;2024-03-06T09:49:31;25.00;;;15.73;;
15331;SDS011;7766;51.534;6.722;2024-03-06T09:51:56;22.90;;;16.03;;
15331;SDS011;7766;51.534;6.722;2024-03-06T09:54:24;22.50;;;15.27;;
15331;SDS011;7766;51.534;6.722;2024-03-06T09:56:54;21.73;;;15.00;;
15331;SDS011;7766;51.534;6.722;2024-03-06T09:59:22;22.33;;;16.17;;
15331;SDS011;7766;51.534;6.722;2024-03-06T10:01:49;25.27;;;15.00;;
15331;SDS011;7766;51.534;6.722;2024-03-06T10:04:19;21.27;;;15.37;;
15331;SDS011;7766;51.534;6.722;2024-03-06T10:06:45;21.67;;;15.00;;
15331;SDS011;7766;51.534;6.722;2024-03-06T10:09:11;22.03;;;15.63;;
15331;SDS011;7766;51.534;6.722;2024-03-06T10:11:40;23.70;;;16.70;;
15331;SDS011;7766;51.534;6.722;2024-03-06T10:14:07;27.80;;;19.17;;
15331;SDS011;7766;51.534;6.722;2024-03-06T10:16:34;24.73;;;17.00;;
15331;SDS011;7766;51.534;6.722;2024-03-06T10:19:17;23.30;;;17.67;;
15331;SDS011;7766;51.534;6.722;2024-03-06T10:21:43;22.63;;;17.33;;
15331;SDS011;7766;51.534;6.722;2024-03-06T10:24:13;28.20;;;18.70;;
15331;SDS011;7766;51.534;6.722;2024-03-06T10:26:45;28.83;;;18.93;;
15331;SDS011;7766;51.534;6.722;2024-03-06T10:29:15;27.93;;;19.33;;
15331;SDS011;7766;51.534;6.722;2024-03-06T10:32:01;26.90;;;18.03;;
15331;SDS011;7766;51.534;6.722;2024-03-06T10:34:27;30.20;;;20.43;;
15331;SDS011;7766;51.534;6.722;2024-03-06T10:37:01;27.83;;;20.37;;
15331;SDS011;7766;51.534;6.722;2024-03-06T10:39:33;38.07;;;22.20;;
15331;SDS011;7766;51.534;6.722;2024-03-06T10:41:59;33.37;;;22.43;;
15331;SDS011;7766;51.534;6.722;2024-03-06T10:44:27;32.23;;;22.73;;
15331;SDS011;7766;51.534;6.722;2024-03-06T10:46:58;38.57;;;25.33;;
15331;SDS011;7766;51.534;6.722;2024-03-06T10:49:25;35.60;;;24.70;;
15331;SDS011;7766;51.534;6.722;2024-03-06T10:51:52;35.90;;;23.93;;
15331;SDS011;7766;51.534;6.722;2024-03-06T10:54:19;44.83;;;27.83;;
15331;SDS011;7766;51.534;6.722;2024-03-06T10:56:48;39.77;;;26.80;;
15331;SDS011;7766;51.534;6.722;2024-03-06T10:59:13;40.00;;;26.60;;
15331;SDS011;7766;51.534;6.722;2024-03-06T11:01:40;38.57;;;26.17;;
15331;SDS011;7766;51.534;6.722;2024-03-06T11:04:09;36.50;;;26.23;;
15331;SDS011;7766;51.534;6.722;2024-03-06T11:06:36;44.13;;;28.43;;
15331;SDS011;7766;51.534;6.722;2024-03-06T11:09:02;45.17;;;27.73;;
15331;SDS011;7766;51.534;6.722;2024-03-06T11:11:28;43.80;;;27.17;;
15331;SDS011;7766;51.534;6.722;2024-03-06T11:14:00;49.00;;;30.00;;
15331;SDS011;7766;51.534;6.722;2024-03-06T11:16:31;46.23;;;30.27;;
15331;SDS011;7766;51.534;6.722;2024-03-06T11:19:17;46.53;;;29.73;;
15331;SDS011;7766;51.534;6.722;2024-03-06T11:21:46;48.60;;;29.20;;
15331;SDS011;7766;51.534;6.722;2024-03-06T11:26:48;47.17;;;31.10;;
15331;SDS011;7766;51.534;6.722;2024-03-06T11:29:17;50.13;;;30.27;;
15331;SDS011;7766;51.534;6.722;2024-03-06T11:34:33;49.47;;;31.13;;
15331;SDS011;7766;51.534;6.722;2024-03-06T11:36:59;48.80;;;30.97;;
15331;SDS011;7766;51.534;6.722;2024-03-06T11:39:32;50.50;;;32.83;;
15331;SDS011;7766;51.534;6.722;2024-03-06T11:41:59;52.40;;;34.13;;
15331;SDS011;7766;51.534;6.722;2024-03-06T11:44:26;50.90;;;33.23;;
15331;SDS011;7766;51.534;6.722;2024-03-06T11:49:34;51.00;;;31.53;;
15331;SDS011;7766;51.534;6.722;2024-03-06T11:52:02;54.13;;;33.90;;
15331;SDS011;7766;51.534;6.722;2024-03-06T11:54:29;51.30;;;33.20;;
15331;SDS011;7766;51.534;6.722;2024-03-06T11:56:57;66.23;;;37.40;;
15331;SDS011;7766;51.534;6.722;2024-03-06T11:59:25;59.23;;;34.60;;
15331;SDS011;7766;51.534;6.722;2024-03-06T12:01:55;61.70;;;35.30;;
15331;SDS011;7766;51.534;6.722;2024-03-06T12:04:21;53.97;;;34.30;;
15331;SDS011;7766;51.534;6.722;2024-03-06T12:06:47;54.77;;;34.13;;
15331;SDS011;7766;51.534;6.722;2024-03-06T12:09:13;57.17;;;35.43;;
15331;SDS011;7766;51.534;6.722;2024-03-06T12:11:40;54.87;;;35.03;;
15331;SDS011;7766;51.534;6.722;2024-03-06T12:14:08;62.87;;;36.70;;
15331;SDS011;7766;51.534;6.722;2024-03-06T12:16:35;59.80;;;35.07;;
15331;SDS011;7766;51.534;6.722;2024-03-06T12:19:01;55.43;;;34.93;;
15331;SDS011;7766;51.534;6.722;2024-03-06T12:21:33;54.60;;;33.80;;
15331;SDS011;7766;51.534;6.722;2024-03-06T12:24:05;55.83;;;35.07;;
15331;SDS011;7766;51.534;6.722;2024-03-06T12:26:34;53.87;;;32.20;;
15331;SDS011;7766;51.534;6.722;2024-03-06T12:29:05;54.50;;;34.60;;
15331;SDS011;7766;51.534;6.722;2024-03-06T12:31:31;53.43;;;35.47;;
15331;SDS011;7766;51.534;6.722;2024-03-06T12:33:58;51.67;;;33.93;;
15331;SDS011;7766;51.534;6.722;2024-03-06T12:36:25;57.60;;;34.80;;
15331;SDS011;7766;51.534;6.722;2024-03-06T12:39:09;59.60;;;35.23;;
15331;SDS011;7766;51.534;6.722;2024-03-06T12:41:38;56.17;;;34.60;;
15331;SDS011;7766;51.534;6.722;2024-03-06T12:44:05;60.73;;;35.67;;
15331;SDS011;7766;51.534;6.722;2024-03-06T12:46:31;55.40;;;33.50;;
15331;SDS011;7766;51.534;6.722;2024-03-06T12:48:57;53.20;;;33.40;;
15331;SDS011;7766;51.534;6.722;2024-03-06T12:51:23;53.87;;;32.87;;
15331;SDS011;7766;51.534;6.722;2024-03-06T12:53:49;51.93;;;31.70;;
15331;SDS011;7766;51.534;6.722;2024-03-06T12:56:16;57.07;;;32.70;;
15331;SDS011;7766;51.534;6.722;2024-03-06T12:58:42;51.10;;;30.27;;
15331;SDS011;7766;51.534;6.722;2024-03-06T13:01:07;50.67;;;29.37;;
15331;SDS011;7766;51.534;6.722;2024-03-06T13:03:33;54.23;;;29.83;;
15331;SDS011;7766;51.534;6.722;2024-03-06T13:05:59;45.80;;;28.00;;
15331;SDS011;7766;51.534;6.722;2024-03-06T13:08:25;44.20;;;25.97;;
15331;SDS011;7766;51.534;6.722;2024-03-06T13:10:51;46.23;;;27.40;;
15331;SDS011;7766;51.534;6.722;2024-03-06T13:13:16;44.87;;;27.93;;
15331;SDS011;7766;51.534;6.722;2024-03-06T13:15:42;51.20;;;30.47;;
15331;SDS011;7766;51.534;6.722;2024-03-06T13:18:09;50.93;;;30.13;;
15331;SDS011;7766;51.534;6.722;2024-03-06T13:20:34;46.50;;;29.40;;
15331;SDS011;7766;51.534;6.722;2024-03-06T13:23:00;45.93;;;25.70;;
15331;SDS011;7766;51.534;6.722;2024-03-06T13:25:26;41.37;;;26.37;;
15331;SDS011;7766;51.534;6.722;2024-03-06T13:27:52;43.17;;;24.97;;
15331;SDS011;7766;51.534;6.722;2024-03-06T13:30:19;37.23;;;23.97;;
15331;SDS011;7766;51.534;6.722;2024-03-06T13:32:45;40.47;;;25.00;;
15331;SDS011;7766;51.534;6.722;2024-03-06T13:35:11;36.67;;;23.30;;
15331;SDS011;7766;51.534;6.722;2024-03-06T13:37:41;38.13;;;24.47;;
15331;SDS011;7766;51.534;6.722;2024-03-06T13:40:08;34.47;;;21.90;;
15331;SDS011;7766;51.534;6.722;2024-03-06T13:42:35;36.43;;;22.53;;
15331;SDS011;7766;51.534;6.722;2024-03-06T13:45:02;29.27;;;19.53;;
15331;SDS011;7766;51.534;6.722;2024-03-06T13:47:28;29.60;;;18.90;;
15331;SDS011;7766;51.534;6.722;2024-03-06T13:49:54;32.40;;;19.10;;
15331;SDS011;7766;51.534;6.722;2024-03-06T13:52:20;46.47;;;27.40;;
15331;SDS011;7766;51.534;6.722;2024-03-06T13:54:48;29.17;;;19.80;;
15331;SDS011;7766;51.534;6.722;2024-03-06T13:57:14;26.43;;;17.03;;
15331;SDS011;7766;51.534;6.722;2024-03-06T13:59:41;26.67;;;17.77;;
15331;SDS011;7766;51.534;6.722;2024-03-06T14:02:07;53.37;;;31.53;;
15331;SDS011;7766;51.534;6.722;2024-03-06T14:04:33;32.50;;;20.70;;
15331;SDS011;7766;51.534;6.722;2024-03-06T14:07:00;28.20;;;16.97;;
15331;SDS011;7766;51.534;6.722;2024-03-06T14:09:26;19.90;;;14.40;;
15331;SDS011;7766;51.534;6.722;2024-03-06T14:11:52;24.87;;;17.00;;
15331;SDS011;7766;51.534;6.722;2024-03-06T14:14:18;26.67;;;16.63;;
15331;SDS011;7766;51.534;6.722;2024-03-06T14:16:44;25.30;;;15.63;;
15331;SDS011;7766;51.534;6.722;2024-03-06T14:19:10;23.33;;;14.50;;
15331;SDS011;7766;51.534;6.722;2024-03-06T14:21:36;21.80;;;14.70;;
15331;SDS011;7766;51.534;6.722;2024-03-06T14:24:03;20.57;;;14.40;;
15331;SDS011;7766;51.534;6.722;2024-03-06T14:26:31;21.47;;;14.00;;
15331;SDS011;7766;51.534;6.722;2024-03-06T14:28:58;20.50;;;13.33;;
15331;SDS011;7766;51.534;6.722;2024-03-06T14:31:23;23.73;;;13.30;;
15331;SDS011;7766;51.534;6.722;2024-03-06T14:33:49;17.87;;;12.60;;
15331;SDS011;7766;51.534;6.722;2024-03-06T14:36:16;21.37;;;12.73;;
15331;SDS011;7766;51.534;6.722;2024-03-06T14:38:42;18.60;;;12.33;;
15331;SDS011;7766;51.534;6.722;2024-03-06T14:41:09;14.43;;;8.67;;